createdAt,value
2019-01-18T00:01:54.203Z,76.61
2019-01-18T00:04:25.479Z,76.64
2019-01-18T00:06:56.753Z,75.21
2019-01-18T00:09:28.063Z,75.57
2019-01-18T00:11:59.302Z,75.49
2019-01-18T00:14:30.786Z,75.48
2019-01-18T00:17:02.505Z,74.35
2019-01-18T00:19:33.896Z,75.43
2019-01-18T00:22:05.817Z,74.87
2019-01-18T00:24:37.067Z,74.39
2019-01-18T00:27:08.357Z,74.64
2019-01-18T00:29:39.670Z,74.06
2019-01-18T00:32:10.947Z,74.15
2019-01-18T00:34:42.163Z,73.80
2019-01-18T00:37:13.396Z,73.92
2019-01-18T00:39:44.594Z,73.77
2019-01-18T00:42:15.904Z,73.86
2019-01-18T00:44:47.168Z,74.18
2019-01-18T00:47:18.414Z,73.90
2019-01-18T00:49:49.764Z,74.26
2019-01-18T00:52:21.102Z,73.82
2019-01-18T00:54:52.297Z,73.72
2019-01-18T00:57:23.635Z,73.04
2019-01-18T00:59:54.930Z,73.17
2019-01-18T01:02:26.157Z,73.22
2019-01-18T01:04:57.339Z,72.81
2019-01-18T01:07:28.562Z,72.31
2019-01-18T01:09:59.761Z,72.17
2019-01-18T01:12:31.096Z,71.96
2019-01-18T01:15:02.971Z,71.97
2019-01-18T01:17:34.278Z,72.13
2019-01-18T01:20:06.192Z,72.59
2019-01-18T01:22:37.401Z,73.19
2019-01-18T01:25:09.260Z,72.50
2019-01-18T01:27:40.937Z,72.59
2019-01-18T01:30:18.024Z,72.60
2019-01-18T01:32:50.871Z,72.59
2019-01-18T01:35:22.078Z,72.75
2019-01-18T01:37:53.388Z,73.04
2019-01-18T01:40:26.740Z,73.11
2019-01-18T01:42:58.188Z,73.08
2019-01-18T01:45:29.759Z,73.37
2019-01-18T01:48:00.966Z,73.09
2019-01-18T01:50:32.308Z,73.94
2019-01-18T01:53:03.924Z,73.91
2019-01-18T01:55:35.171Z,74.54
2019-01-18T01:58:06.439Z,74.80
2019-01-18T02:00:39.237Z,74.44
2019-01-18T02:03:10.768Z,74.89
2019-01-18T02:05:41.994Z,75.05
2019-01-18T02:08:13.292Z,74.48
2019-01-18T02:10:44.517Z,74.65
2019-01-18T02:13:15.721Z,74.69
2019-01-18T02:15:46.938Z,74.66
2019-01-18T02:18:19.828Z,74.41
2019-01-18T02:20:51.050Z,74.59
2019-01-18T02:23:22.354Z,74.23
2019-01-18T02:25:53.889Z,73.94
2019-01-18T02:28:25.137Z,72.95
2019-01-18T02:30:56.358Z,72.77
2019-01-18T02:33:27.624Z,72.53
2019-01-18T02:36:00.759Z,72.86
2019-01-18T02:38:32.463Z,72.14
2019-01-18T02:41:03.777Z,72.87
2019-01-18T02:43:35.059Z,71.93
2019-01-18T02:46:06.329Z,72.18
2019-01-18T02:48:37.663Z,71.64
2019-01-18T02:51:09.021Z,72.19
2019-01-18T02:53:40.237Z,72.38
2019-01-18T02:56:11.533Z,72.87
2019-01-18T03:02:09.224Z,71.69
2019-01-18T03:04:41.912Z,72.55
2019-01-18T03:07:13.172Z,72.35
2019-01-18T03:09:44.390Z,72.81
2019-01-18T03:12:15.614Z,72.92
2019-01-18T03:14:46.898Z,72.93
2019-01-18T03:17:18.130Z,73.27
2019-01-18T03:19:49.388Z,73.50
2019-01-18T03:22:20.618Z,73.68
2019-01-18T03:24:51.825Z,73.51
2019-01-18T03:27:23.253Z,73.94
2019-01-18T03:29:54.468Z,73.88
2019-01-18T03:32:25.698Z,73.96
2019-01-18T03:34:56.984Z,74.45
2019-01-18T03:37:28.181Z,74.21
2019-01-18T03:39:59.579Z,73.85
2019-01-18T03:42:30.938Z,74.28
2019-01-18T03:45:02.298Z,74.50
2019-01-18T03:47:33.643Z,73.99
2019-01-18T03:53:32.212Z,74.08
2019-01-18T03:56:03.785Z,73.93
2019-01-18T03:58:35.123Z,73.97
2019-01-18T04:01:06.353Z,73.98
2019-01-18T04:03:37.608Z,74.16
2019-01-18T04:06:08.804Z,74.47
2019-01-18T04:08:40.098Z,74.38
2019-01-18T04:11:11.609Z,73.96
2019-01-18T04:13:42.814Z,73.64
2019-01-18T04:16:14.013Z,74.28
2019-01-18T04:18:45.243Z,74.55
2019-01-18T04:21:16.680Z,74.28
2019-01-18T04:23:48.552Z,73.94
2019-01-18T04:26:19.733Z,74.75
2019-01-18T04:28:50.942Z,75.23
2019-01-18T04:31:22.325Z,74.78
2019-01-18T04:33:53.521Z,74.89
2019-01-18T04:36:25.119Z,74.78
2019-01-18T04:38:56.327Z,74.98
2019-01-18T04:41:27.749Z,74.88
2019-01-18T04:43:59.706Z,74.74
2019-01-18T04:46:30.894Z,74.62
2019-01-18T04:49:03.798Z,74.77
2019-01-18T04:51:34.983Z,74.76
2019-01-18T04:54:06.183Z,74.67
2019-01-18T04:56:37.459Z,74.38
2019-01-18T04:59:08.678Z,74.35
2019-01-18T05:01:40.236Z,74.27
2019-01-18T05:04:11.862Z,74.69
2019-01-18T05:06:43.060Z,74.08
2019-01-18T05:09:14.481Z,74.76
2019-01-18T05:11:46.284Z,74.61
2019-01-18T05:14:17.490Z,74.05
2019-01-18T05:16:48.763Z,74.76
2019-01-18T05:19:20.120Z,74.48
2019-01-18T05:21:51.347Z,74.98
2019-01-18T05:24:24.159Z,75.07
2019-01-18T05:26:55.354Z,74.85
2019-01-18T05:29:27.089Z,75.06
2019-01-18T05:31:58.300Z,75.71
2019-01-18T05:34:29.526Z,74.87
2019-01-18T05:37:00.716Z,74.49
2019-01-18T05:42:54.255Z,75.24
2019-01-18T05:45:27.197Z,75.09
2019-01-18T05:47:58.607Z,75.22
2019-01-18T05:50:31.149Z,75.77
2019-01-18T05:53:05.908Z,75.74
2019-01-18T05:55:37.348Z,74.65
2019-01-18T05:58:08.687Z,75.56
2019-01-18T06:00:55.222Z,74.80
2019-01-18T06:03:24.033Z,74.96
2019-01-18T06:05:55.214Z,74.83
2019-01-18T06:08:26.449Z,74.29
2019-01-18T06:10:57.651Z,74.39
2019-01-18T06:13:29.450Z,73.49
2019-01-18T06:16:20.041Z,73.81
2019-01-18T06:18:51.320Z,73.97
2019-01-18T06:21:22.534Z,74.51
2019-01-18T06:23:54.038Z,74.13
2019-01-18T06:26:25.319Z,73.52
2019-01-18T06:28:56.705Z,73.65
2019-01-18T06:31:28.023Z,73.62
2019-01-18T06:33:59.213Z,72.85
2019-01-18T06:36:30.920Z,72.33
2019-01-18T06:39:02.152Z,72.42
2019-01-18T06:41:47.615Z,72.62
2019-01-18T06:44:18.848Z,72.49
2019-01-18T06:46:50.577Z,71.47
2019-01-18T06:49:21.964Z,71.10
2019-01-18T06:51:53.272Z,71.33
2019-01-18T06:54:24.638Z,71.10
2019-01-18T06:56:55.955Z,70.72
2019-01-18T06:59:27.161Z,70.13
2019-01-18T07:01:59.104Z,71.46
2019-01-18T07:04:31.240Z,71.13
2019-01-18T07:07:02.517Z,68.61
2019-01-18T07:09:33.879Z,69.69
2019-01-18T07:12:05.313Z,67.96
2019-01-18T07:14:36.528Z,68.37
2019-01-18T07:17:07.756Z,67.87
2019-01-18T07:19:38.950Z,66.35
2019-01-18T07:22:10.509Z,67.58
2019-01-18T07:24:42.071Z,65.88
2019-01-18T07:27:13.476Z,65.29
2019-01-18T07:29:44.711Z,66.27
2019-01-18T07:32:15.976Z,66.73
2019-01-18T07:34:47.571Z,66.22
2019-01-18T07:37:18.740Z,66.88
2019-01-18T07:39:50.098Z,65.96
2019-01-18T07:42:21.468Z,66.52
2019-01-18T07:44:53.109Z,65.56
2019-01-18T07:47:24.331Z,64.85
2019-01-18T07:49:55.532Z,64.91
2019-01-18T07:52:26.861Z,65.51
2019-01-18T07:54:58.147Z,66.28
2019-01-18T07:57:38.816Z,66.40
2019-01-18T08:00:21.740Z,67.51
2019-01-18T08:02:53.203Z,67.35
2019-01-18T08:05:26.810Z,68.21
2019-01-18T08:07:58.011Z,66.84
2019-01-18T08:10:29.321Z,67.05
2019-01-18T08:13:00.570Z,68.62
2019-01-18T08:15:31.943Z,67.78
2019-01-18T08:18:03.154Z,67.31
2019-01-18T08:20:34.331Z,67.09
2019-01-18T08:23:05.791Z,68.21
2019-01-18T08:28:38.475Z,69.65
2019-01-18T08:31:11.394Z,72.38
2019-01-18T08:33:42.615Z,73.17
2019-01-18T08:36:13.916Z,73.47
2019-01-18T08:38:45.770Z,74.09
2019-01-18T08:41:17.028Z,74.49
2019-01-18T08:43:48.877Z,74.19
2019-01-18T08:46:20.623Z,74.24
2019-01-18T08:48:51.853Z,74.10
2019-01-18T08:51:23.561Z,74.56
2019-01-18T08:53:55.138Z,73.68
2019-01-18T08:56:26.350Z,73.87
2019-01-18T08:58:57.553Z,73.53
2019-01-18T09:01:35.540Z,73.49
2019-01-18T09:04:02.445Z,71.80
2019-01-18T09:06:33.732Z,72.32
2019-01-18T09:09:08.179Z,71.66
2019-01-18T09:11:39.486Z,71.38
2019-01-18T09:14:10.696Z,70.68
2019-01-18T09:16:42.121Z,70.26
2019-01-18T09:19:13.958Z,70.05
2019-01-18T09:21:47.796Z,69.96
2019-01-18T09:24:20.742Z,69.82
2019-01-18T09:26:51.975Z,68.62
2019-01-18T09:29:23.271Z,67.71
2019-01-18T09:31:54.506Z,66.62
2019-01-18T09:34:25.875Z,65.60
2019-01-18T09:36:57.112Z,64.63
2019-01-18T09:39:28.450Z,65.15
2019-01-18T09:41:59.837Z,61.30
2019-01-18T09:44:31.140Z,60.64
2019-01-18T09:47:02.494Z,61.82
2019-01-18T09:49:33.918Z,63.16
2019-01-18T09:52:05.231Z,63.23
2019-01-18T09:54:36.406Z,64.23
2019-01-18T09:57:07.678Z,65.22
2019-01-18T09:59:38.890Z,65.50
2019-01-18T10:02:10.144Z,65.16
2019-01-18T10:04:41.357Z,65.78
2019-01-18T10:07:12.706Z,65.08
2019-01-18T10:09:44.130Z,64.61
2019-01-18T10:12:15.610Z,64.92
2019-01-18T10:14:47.200Z,64.29
2019-01-18T10:17:18.887Z,64.70
2019-01-18T10:19:50.238Z,64.43
2019-01-18T10:22:21.672Z,64.86
2019-01-18T10:24:53.336Z,64.28
2019-01-18T10:27:26.039Z,65.00
2019-01-18T10:29:59.743Z,65.12
2019-01-18T10:32:36.107Z,65.84
2019-01-18T10:35:07.518Z,65.31
2019-01-18T10:37:40.978Z,65.76
2019-01-18T10:40:15.512Z,65.72
2019-01-18T10:42:51.207Z,66.08
2019-01-18T10:45:22.595Z,65.78
2019-01-18T10:47:54.111Z,63.90
2019-01-18T10:50:27.784Z,63.75
2019-01-18T10:52:59.373Z,61.93
2019-01-18T10:55:30.988Z,62.77
2019-01-18T10:58:02.315Z,59.26
2019-01-18T11:00:36.210Z,57.92
2019-01-18T11:03:07.428Z,60.17
2019-01-18T11:05:38.662Z,60.03
2019-01-18T11:08:10.610Z,59.77
2019-01-18T11:10:43.040Z,60.34
2019-01-18T11:13:14.548Z,61.05
2019-01-18T11:15:47.370Z,61.00
2019-01-18T11:18:19.092Z,62.76
2019-01-18T11:21:07.601Z,63.02
2019-01-18T11:23:39.140Z,61.97
2019-01-18T11:26:10.368Z,58.58
2019-01-18T11:28:42.337Z,57.28
2019-01-18T11:31:13.635Z,53.99
2019-01-18T11:33:44.943Z,52.85
2019-01-18T11:36:16.280Z,54.73
2019-01-18T11:38:47.634Z,53.14
2019-01-18T11:41:19.029Z,52.45
2019-01-18T11:43:50.744Z,52.55
2019-01-18T11:46:22.189Z,53.31
2019-01-18T11:48:54.992Z,52.68
2019-01-18T11:51:53.720Z,54.14
2019-01-18T11:54:24.939Z,55.42
2019-01-18T11:56:56.237Z,56.86
2019-01-18T11:59:27.507Z,57.03
2019-01-18T12:01:58.824Z,57.13
2019-01-18T12:04:30.015Z,58.36
2019-01-18T12:07:01.895Z,59.20
2019-01-18T12:09:33.161Z,59.27
2019-01-18T12:12:04.344Z,59.14
2019-01-18T12:14:35.774Z,59.65
2019-01-18T12:17:07.052Z,53.77
2019-01-18T12:19:38.261Z,51.36
2019-01-18T12:22:09.499Z,47.83
2019-01-18T12:24:40.783Z,48.48
2019-01-18T12:27:12.434Z,47.54
2019-01-18T12:29:43.766Z,47.78
2019-01-18T12:32:14.982Z,46.06
2019-01-18T12:34:46.263Z,46.25
2019-01-18T12:37:17.439Z,46.15
2019-01-18T12:39:49.134Z,45.64
2019-01-18T12:42:20.794Z,47.55
2019-01-18T12:44:52.201Z,52.20
2019-01-18T12:47:23.408Z,52.48
2019-01-18T12:49:54.627Z,51.55
2019-01-18T12:52:25.926Z,51.75
2019-01-18T12:54:57.453Z,52.89
2019-01-18T12:57:28.687Z,53.26
2019-01-18T12:59:59.960Z,52.46
2019-01-18T13:02:35.321Z,51.72
2019-01-18T13:05:05.869Z,52.69
2019-01-18T13:07:38.926Z,53.63
2019-01-18T13:10:12.394Z,52.83
2019-01-18T13:12:44.060Z,54.17
2019-01-18T13:15:25.319Z,53.38
2019-01-18T13:17:56.644Z,54.50
2019-01-18T13:20:27.881Z,54.47
2019-01-18T13:22:59.061Z,55.18
2019-01-18T13:25:30.528Z,56.52
2019-01-18T13:28:01.809Z,55.73
2019-01-18T13:30:33.599Z,56.94
2019-01-18T13:33:05.023Z,55.20
2019-01-18T13:35:36.454Z,54.98
2019-01-18T13:38:07.707Z,54.96
2019-01-18T13:40:38.941Z,53.90
2019-01-18T13:43:10.244Z,55.67
2019-01-18T13:45:41.676Z,56.44
2019-01-18T13:51:48.923Z,56.20
2019-01-18T13:54:20.164Z,55.80
2019-01-18T13:56:51.442Z,57.23
2019-01-18T13:59:22.698Z,54.86
2019-01-18T14:01:53.887Z,55.07
2019-01-18T14:04:25.399Z,51.88
2019-01-18T14:06:56.681Z,48.73
2019-01-18T14:09:28.031Z,47.28
2019-01-18T14:11:59.437Z,45.30
2019-01-18T14:14:30.764Z,45.38
2019-01-18T14:17:02.363Z,45.43
2019-01-18T14:19:33.959Z,46.34
2019-01-18T14:22:05.171Z,46.80
2019-01-18T14:24:36.527Z,47.79
2019-01-18T14:27:07.778Z,49.14
2019-01-18T14:29:39.083Z,49.41
2019-01-18T14:32:10.311Z,50.95
2019-01-18T14:34:41.601Z,50.50
2019-01-18T14:37:12.919Z,52.38
2019-01-18T14:39:44.140Z,53.96
2019-01-18T14:42:15.409Z,53.80
2019-01-18T14:44:46.657Z,55.26
2019-01-18T14:47:17.921Z,55.06
2019-01-18T14:49:49.122Z,55.38
2019-01-18T14:52:20.556Z,56.22
2019-01-18T14:54:51.874Z,56.86
2019-01-18T14:57:23.259Z,58.04
2019-01-18T14:59:54.902Z,57.97
2019-01-18T15:02:26.193Z,58.98
2019-01-18T15:04:57.483Z,59.79
2019-01-18T15:07:28.716Z,59.06
2019-01-18T15:10:04.979Z,60.44
2019-01-18T15:12:33.504Z,60.05
2019-01-18T15:15:05.461Z,60.05
2019-01-18T15:17:36.647Z,60.78
2019-01-18T15:20:12.909Z,60.76
2019-01-18T15:22:44.530Z,61.39
2019-01-18T15:25:15.723Z,61.81
2019-01-18T15:27:47.027Z,62.09
2019-01-18T15:30:20.649Z,62.89
2019-01-18T15:32:51.870Z,63.69
2019-01-18T15:35:26.196Z,63.48
2019-01-18T15:37:59.065Z,63.67
2019-01-18T15:40:33.253Z,63.59
2019-01-18T15:43:04.728Z,63.76
2019-01-18T15:45:36.429Z,63.85
2019-01-18T15:48:07.758Z,63.77
2019-01-18T15:50:39.701Z,64.02
2019-01-18T15:53:10.981Z,65.73
2019-01-18T15:55:42.198Z,64.92
2019-01-18T15:58:13.439Z,65.46
2019-01-18T16:00:45.286Z,65.04
2019-01-18T16:03:16.469Z,65.34
2019-01-18T16:05:47.692Z,65.91
2019-01-18T16:08:18.971Z,65.81
2019-01-18T16:10:50.216Z,66.52
2019-01-18T16:13:23.232Z,66.87
2019-01-18T16:16:21.643Z,66.67
2019-01-18T16:18:54.444Z,66.21
2019-01-18T16:21:25.949Z,66.80
2019-01-18T16:23:57.365Z,67.39
2019-01-18T16:26:28.611Z,67.23
2019-01-18T16:29:00.517Z,67.63
2019-01-18T16:31:31.751Z,67.54
2019-01-18T16:34:03.039Z,68.48
2019-01-18T16:36:34.375Z,68.15
2019-01-18T16:39:09.210Z,67.52
2019-01-18T16:41:40.767Z,67.93
2019-01-18T16:44:12.144Z,68.08
2019-01-18T16:50:10.242Z,68.63
2019-01-18T16:52:41.565Z,68.58
2019-01-18T16:55:14.008Z,68.70
2019-01-18T16:57:46.841Z,68.62
2019-01-18T17:00:21.249Z,69.62
2019-01-18T17:02:52.504Z,68.82
2019-01-18T17:05:23.877Z,68.71
2019-01-18T17:07:55.214Z,68.54
2019-01-18T17:10:26.883Z,68.76
2019-01-18T17:12:58.670Z,69.98
2019-01-18T17:15:29.989Z,70.05
2019-01-18T17:18:01.368Z,69.58
2019-01-18T17:20:35.841Z,70.14
2019-01-18T17:23:07.243Z,70.14
2019-01-18T17:25:38.797Z,70.05
2019-01-18T17:28:11.044Z,70.09
2019-01-18T17:30:42.497Z,70.11
2019-01-18T17:33:14.107Z,69.82
2019-01-18T17:35:59.155Z,69.53
2019-01-18T17:39:13.218Z,69.76
2019-01-18T17:42:27.358Z,69.81
2019-01-18T17:45:46.023Z,69.46
2019-01-18T17:48:32.340Z,69.30
2019-01-18T17:52:00.025Z,69.29
2019-01-18T17:54:52.073Z,69.53
2019-01-18T17:57:56.483Z,69.78
2019-01-18T18:01:03.772Z,70.15
2019-01-18T18:04:06.669Z,70.09
2019-01-18T18:07:17.857Z,69.83
2019-01-18T18:10:29.393Z,69.23
2019-01-18T18:13:41.770Z,68.65
2019-01-18T18:17:01.849Z,69.47
2019-01-18T18:19:57.084Z,70.16
2019-01-18T18:23:20.159Z,70.18
2019-01-18T18:26:41.366Z,70.29
2019-01-18T18:30:01.399Z,70.55
2019-01-18T18:33:12.572Z,70.59
2019-01-18T18:36:34.156Z,70.17
2019-01-18T18:39:41.000Z,69.93
2019-01-18T18:42:29.164Z,72.08
2019-01-18T18:45:26.987Z,71.13
2019-01-18T18:48:13.152Z,72.50
2019-01-18T18:51:21.199Z,71.81
2019-01-18T18:54:42.607Z,70.84
2019-01-18T18:57:53.694Z,71.40
2019-01-18T19:00:39.989Z,71.17
2019-01-18T19:03:42.856Z,71.27
2019-01-18T19:06:59.358Z,71.73
2019-01-18T19:09:58.814Z,72.81
2019-01-18T19:13:17.800Z,72.96
2019-01-18T19:16:24.345Z,72.26
2019-01-18T19:19:33.036Z,71.88
2019-01-18T19:22:47.466Z,72.51
2019-01-18T19:25:43.608Z,73.04
2019-01-18T19:28:51.713Z,72.21
2019-01-18T19:32:03.576Z,71.04
2019-01-18T19:35:31.026Z,71.37
2019-01-18T19:38:32.727Z,71.39
2019-01-18T19:41:34.422Z,71.15
2019-01-18T19:44:59.194Z,70.79
2019-01-18T19:47:42.097Z,71.41
2019-01-18T19:50:56.084Z,70.98
2019-01-18T19:53:55.789Z,70.96
2019-01-18T19:57:04.145Z,70.80
2019-01-18T20:00:09.359Z,70.79
2019-01-18T20:03:01.461Z,70.38
2019-01-18T20:06:15.616Z,70.52
2019-01-18T20:09:12.984Z,69.93
2019-01-18T20:12:23.482Z,69.42
2019-01-18T20:15:08.037Z,69.31
2019-01-18T20:18:25.399Z,69.12
2019-01-18T20:21:18.747Z,71.10
2019-01-18T20:24:34.949Z,70.90
2019-01-18T20:27:20.950Z,71.03
2019-01-18T20:30:38.469Z,71.30
2019-01-18T20:34:00.080Z,70.79
2019-01-18T20:37:14.532Z,70.70
2019-01-18T20:40:26.778Z,70.08
2019-01-18T20:43:51.085Z,71.41
2019-01-18T20:47:01.696Z,72.26
2019-01-18T20:50:10.334Z,72.06
2019-01-18T20:52:58.606Z,71.89
2019-01-18T20:55:53.228Z,71.98
2019-01-18T20:58:57.524Z,71.42
2019-01-18T21:02:22.374Z,70.99
2019-01-18T21:05:24.696Z,70.65
2019-01-18T21:08:10.900Z,70.73
2019-01-18T21:11:13.611Z,70.74
2019-01-18T21:14:07.553Z,70.91
2019-01-18T21:17:10.276Z,70.82
2019-01-18T21:20:24.593Z,70.42
2019-01-18T21:23:13.067Z,71.50
2019-01-18T21:26:06.733Z,72.32
2019-01-18T21:29:40.387Z,72.50
2019-01-18T21:32:28.356Z,72.45
2019-01-18T21:35:15.358Z,72.40
2019-01-18T21:38:15.254Z,71.94
2019-01-18T21:41:14.557Z,71.61
2019-01-18T21:44:27.282Z,71.71
2019-01-18T21:47:35.889Z,71.67
2019-01-18T21:50:24.093Z,71.17
2019-01-18T21:53:44.486Z,71.19
2019-01-18T21:56:52.995Z,70.79
2019-01-18T21:59:59.905Z,71.15
2019-01-18T22:03:21.542Z,70.40
2019-01-18T22:06:24.622Z,70.82
2019-01-18T22:09:35.481Z,69.65
2019-01-18T22:12:42.636Z,69.96
2019-01-18T22:16:13.195Z,69.70
2019-01-18T22:19:28.261Z,69.87
2019-01-18T22:22:19.521Z,69.70
2019-01-18T22:25:29.221Z,70.17
2019-01-18T22:28:35.226Z,70.20
2019-01-18T22:31:46.279Z,70.19
2019-01-18T22:34:39.981Z,69.43
2019-01-18T22:37:41.768Z,69.64
2019-01-18T22:41:00.200Z,69.89
2019-01-18T22:44:09.652Z,69.51
2019-01-18T22:47:19.185Z,69.38
2019-01-18T22:50:43.058Z,69.89
2019-01-18T22:54:01.518Z,70.54
2019-01-18T22:56:50.705Z,69.42
2019-01-18T22:59:57.053Z,68.94
2019-01-18T23:03:09.658Z,69.08
2019-01-18T23:06:05.705Z,69.26
2019-01-18T23:09:13.678Z,68.82
2019-01-18T23:12:01.526Z,68.40
2019-01-18T23:15:06.353Z,67.55
2019-01-18T23:17:49.275Z,69.05
2019-01-18T23:21:03.162Z,69.51
2019-01-18T23:24:03.865Z,68.12
2019-01-18T23:27:03.875Z,68.58
2019-01-18T23:30:06.693Z,69.92
2019-01-18T23:33:24.583Z,69.41
2019-01-18T23:36:27.216Z,68.79
2019-01-18T23:39:54.491Z,70.18
2019-01-18T23:43:05.935Z,69.36
2019-01-18T23:46:15.506Z,69.65
2019-01-18T23:49:06.983Z,69.42
2019-01-18T23:52:28.176Z,70.60
2019-01-18T23:55:52.182Z,70.05
2019-01-18T23:59:12.751Z,69.84
